Holmes Beach, FL

5:53 AM EDT on September 16, 2014 (GMT -0400)
Holiday Cove | Change Station
CLOSE
Current Station
Personal Weather Station
Location: Cortez, FL
Elevation: 14 ft
Nearby Weather Stations

Elev 14 ft 27.47 °N, 82.68 °W | Updated 11 minutes ago

Clear
Clear
76.3 °F
Feels Like 77 °F
N
0.0
Wind Variable Wind from NE
Gusts 0.0 mph

Today
High -- | Low -- °F
--% Chance of Precip.
Yesterday
High -- | Low -- °F
Precip. -- in
7:16 AM 7:34 PM
Waning Gibbous, 47% visible
Pressure 30.06 in
Visibility 10.0 miles
Clouds Clear
Heat Index 77 °F
Dew Point 74 °F
Humidity 91%
Rainfall 0.00 in
Snow Depth Not available.
UV 0 out of 12
Pollen 6.20 out of 12
Air Quality Not available.
Flu Activity Not available.
METAR KSRQ 160853Z 00000KT 10SM CLR 24/23 A3007 RMK AO2 SLP180 T02440228 56013

More Conditions Fewer Conditions

Pressure 30.06 in
Visibility 10.0 miles
Clouds Clear
Heat Index 77 °F
Dew Point 74 °F
Humidity 91%
Rainfall 0.00 in
Snow Depth Not available.
UV 0 out of 12
Pollen 6.20 out of 12
Air Quality Not available.
Flu Activity Not available.
METAR KSRQ 160853Z 00000KT 10SM CLR 24/23 A3007 RMK AO2 SLP180 T02440228 56013

More Conditions Fewer Conditions

10-Day Weather Forecast

Almanac

Astronomy

Sep. 16, 2014 Rise Set
Actual Time 7:16 AM EDT 7:34 PM EDT
Civil Twilight 6:53 AM EDT 7:57 PM EDT
Nautical Twilight 6:25 AM EDT 8:24 PM EDT
Astronomical Twilight 5:58 AM EDT 8:52 PM EDT
Moon 12:47 AM EDT 2:34 PM EDT
Length of Visible Light 13h 04m
Length of Day
12h 17m
Tomorrow will be 1m 37s shorter.
Waning Gibbous, 47% of the Moon is Illuminated
Today
Waning Gibbous
Sep 24
New
Oct 1
First Quarter
Oct 8
Full
Oct 15
Last Quarter

Today's Extremes

State Highs State Lows

Community

WunderPhotos

Upload Photos

1,753,714 photos uploaded!

WunderBlogs® & News

Nearby

Snow Depth

Station Depth Elevation
No new snow has been reported.

Earthquake Activity

City Distance Mag. Time & Date
No recent earthquake activity has been reported nearby.
Minimum magnitude displayed is 2.5.

Coastal Water Temperatures

Place Temperature
St Petersburg, FL 87.1 °F
Old Port Tampa, FL 86.0 °F

Nearby Weather Stations